sensor_id;sensor_type;location;lat;lon;timestamp;pressure;altitude;pressure_sealevel;temperature;humidity
57412;BME280;43247;52.828;-8.980;2023-04-27T00:00:20;101325.65;;;11.63;76.00
57412;BME280;43247;52.828;-8.980;2023-04-27T00:01:21;101327.77;;;11.64;76.07
57412;BME280;43247;52.828;-8.980;2023-04-27T00:02:21;101326.15;;;11.64;76.20
57412;BME280;43247;52.828;-8.980;2023-04-27T00:03:22;101326.17;;;11.64;76.36
57412;BME280;43247;52.828;-8.980;2023-04-27T00:04:22;101322.88;;;11.64;76.25
57412;BME280;43247;52.828;-8.980;2023-04-27T00:05:22;101322.56;;;11.64;76.25
57412;BME280;43247;52.828;-8.980;2023-04-27T00:06:23;101319.31;;;11.63;76.20
57412;BME280;43247;52.828;-8.980;2023-04-27T00:07:23;101318.30;;;11.66;76.15
57412;BME280;43247;52.828;-8.980;2023-04-27T00:08:23;101319.40;;;11.65;76.25
57412;BME280;43247;52.828;-8.980;2023-04-27T00:09:24;101318.44;;;11.65;76.32
57412;BME280;43247;52.828;-8.980;2023-04-27T00:10:24;101320.79;;;11.65;76.36
57412;BME280;43247;52.828;-8.980;2023-04-27T00:11:24;101321.15;;;11.64;76.16
57412;BME280;43247;52.828;-8.980;2023-04-27T00:12:25;101323.57;;;11.64;76.08
57412;BME280;43247;52.828;-8.980;2023-04-27T00:13:25;101319.60;;;11.63;76.09
57412;BME280;43247;52.828;-8.980;2023-04-27T00:14:25;101316.90;;;11.63;76.00
57412;BME280;43247;52.828;-8.980;2023-04-27T00:15:26;101311.73;;;11.62;75.99
57412;BME280;43247;52.828;-8.980;2023-04-27T00:16:26;101309.62;;;11.62;75.97
57412;BME280;43247;52.828;-8.980;2023-04-27T00:17:26;101305.67;;;11.62;76.04
57412;BME280;43247;52.828;-8.980;2023-04-27T00:18:26;101305.26;;;11.61;76.10
57412;BME280;43247;52.828;-8.980;2023-04-27T00:19:26;101302.38;;;11.62;76.21
57412;BME280;43247;52.828;-8.980;2023-04-27T00:20:27;101302.09;;;11.62;76.34
57412;BME280;43247;52.828;-8.980;2023-04-27T00:21:27;101305.28;;;11.61;76.23
57412;BME280;43247;52.828;-8.980;2023-04-27T00:22:27;101300.93;;;11.61;76.16
57412;BME280;43247;52.828;-8.980;2023-04-27T00:23:27;101302.47;;;11.61;76.13
57412;BME280;43247;52.828;-8.980;2023-04-27T00:24:28;101305.61;;;11.60;76.16
57412;BME280;43247;52.828;-8.980;2023-04-27T00:25:28;101303.24;;;11.60;76.21
57412;BME280;43247;52.828;-8.980;2023-04-27T00:26:29;101299.10;;;11.60;76.20
57412;BME280;43247;52.828;-8.980;2023-04-27T00:27:29;101301.29;;;11.60;76.12
57412;BME280;43247;52.828;-8.980;2023-04-27T00:28:30;101299.07;;;11.59;76.15
57412;BME280;43247;52.828;-8.980;2023-04-27T00:29:30;101297.82;;;11.59;76.22
57412;BME280;43247;52.828;-8.980;2023-04-27T00:30:30;101296.18;;;11.59;76.34
57412;BME280;43247;52.828;-8.980;2023-04-27T00:31:30;101294.58;;;11.60;76.38
57412;BME280;43247;52.828;-8.980;2023-04-27T00:32:30;101293.16;;;11.60;76.45
57412;BME280;43247;52.828;-8.980;2023-04-27T00:33:30;101292.82;;;11.60;76.40
57412;BME280;43247;52.828;-8.980;2023-04-27T00:34:31;101293.57;;;11.59;76.46
57412;BME280;43247;52.828;-8.980;2023-04-27T00:35:32;101292.94;;;11.59;76.34
57412;BME280;43247;52.828;-8.980;2023-04-27T00:36:32;101290.30;;;11.59;76.31
57412;BME280;43247;52.828;-8.980;2023-04-27T00:37:32;101289.79;;;11.58;76.36
57412;BME280;43247;52.828;-8.980;2023-04-27T00:38:32;101291.41;;;11.58;76.39
57412;BME280;43247;52.828;-8.980;2023-04-27T00:39:33;101291.87;;;11.58;76.36
57412;BME280;43247;52.828;-8.980;2023-04-27T00:40:32;101290.07;;;11.57;76.40
57412;BME280;43247;52.828;-8.980;2023-04-27T00:41:36;101287.78;;;11.57;76.39
57412;BME280;43247;52.828;-8.980;2023-04-27T00:42:34;101287.28;;;11.58;76.38
57412;BME280;43247;52.828;-8.980;2023-04-27T00:43:42;101282.81;;;11.58;76.46
57412;BME280;43247;52.828;-8.980;2023-04-27T00:44:33;101278.71;;;11.58;76.48
57412;BME280;43247;52.828;-8.980;2023-04-27T00:45:36;101279.87;;;11.57;76.34
57412;BME280;43247;52.828;-8.980;2023-04-27T00:46:34;101277.71;;;11.57;76.47
57412;BME280;43247;52.828;-8.980;2023-04-27T00:47:34;101275.12;;;11.57;76.50
57412;BME280;43247;52.828;-8.980;2023-04-27T00:48:34;101274.32;;;11.57;76.56
57412;BME280;43247;52.828;-8.980;2023-04-27T00:49:35;101272.35;;;11.57;76.51
57412;BME280;43247;52.828;-8.980;2023-04-27T00:50:36;101273.70;;;11.57;76.36
57412;BME280;43247;52.828;-8.980;2023-04-27T00:51:36;101273.05;;;11.57;76.39
57412;BME280;43247;52.828;-8.980;2023-04-27T00:52:37;101273.60;;;11.56;76.45
57412;BME280;43247;52.828;-8.980;2023-04-27T00:53:37;101271.48;;;11.56;76.40
57412;BME280;43247;52.828;-8.980;2023-04-27T00:54:37;101268.81;;;11.56;76.40
57412;BME280;43247;52.828;-8.980;2023-04-27T00:55:37;101270.02;;;11.57;76.51
57412;BME280;43247;52.828;-8.980;2023-04-27T00:56:37;101268.55;;;11.56;76.55
57412;BME280;43247;52.828;-8.980;2023-04-27T00:57:38;101269.75;;;11.56;76.46
57412;BME280;43247;52.828;-8.980;2023-04-27T00:58:38;101265.50;;;11.56;76.45
57412;BME280;43247;52.828;-8.980;2023-04-27T00:59:38;101263.36;;;11.56;76.51
57412;BME280;43247;52.828;-8.980;2023-04-27T01:00:39;101263.77;;;11.56;76.59
57412;BME280;43247;52.828;-8.980;2023-04-27T01:01:39;101262.99;;;11.55;76.60
57412;BME280;43247;52.828;-8.980;2023-04-27T01:02:39;101265.13;;;11.55;76.63
57412;BME280;43247;52.828;-8.980;2023-04-27T01:03:39;101264.77;;;11.55;76.59
57412;BME280;43247;52.828;-8.980;2023-04-27T01:04:40;101264.50;;;11.55;76.70
57412;BME280;43247;52.828;-8.980;2023-04-27T01:05:40;101262.45;;;11.54;76.72
57412;BME280;43247;52.828;-8.980;2023-04-27T01:06:40;101259.37;;;11.54;76.69
57412;BME280;43247;52.828;-8.980;2023-04-27T01:07:40;101259.55;;;11.53;76.62
57412;BME280;43247;52.828;-8.980;2023-04-27T01:08:40;101255.05;;;11.53;76.60
57412;BME280;43247;52.828;-8.980;2023-04-27T01:09:40;101254.96;;;11.52;76.58
57412;BME280;43247;52.828;-8.980;2023-04-27T01:10:40;101251.40;;;11.52;76.55
57412;BME280;43247;52.828;-8.980;2023-04-27T01:11:41;101250.45;;;11.53;76.55
57412;BME280;43247;52.828;-8.980;2023-04-27T01:12:41;101251.91;;;11.53;76.61
57412;BME280;43247;52.828;-8.980;2023-04-27T01:13:42;101247.83;;;11.53;76.65
57412;BME280;43247;52.828;-8.980;2023-04-27T01:14:42;101249.21;;;11.55;76.63
57412;BME280;43247;52.828;-8.980;2023-04-27T01:15:42;101246.36;;;11.55;76.76
57412;BME280;43247;52.828;-8.980;2023-04-27T01:16:43;101244.59;;;11.56;76.79
57412;BME280;43247;52.828;-8.980;2023-04-27T01:17:44;101244.23;;;11.55;76.58
57412;BME280;43247;52.828;-8.980;2023-04-27T01:18:44;101244.18;;;11.55;76.47
57412;BME280;43247;52.828;-8.980;2023-04-27T01:19:44;101244.00;;;11.55;76.57
57412;BME280;43247;52.828;-8.980;2023-04-27T01:20:44;101241.65;;;11.55;76.62
57412;BME280;43247;52.828;-8.980;2023-04-27T01:21:45;101238.67;;;11.55;76.58
57412;BME280;43247;52.828;-8.980;2023-04-27T01:22:45;101238.86;;;11.55;76.63
57412;BME280;43247;52.828;-8.980;2023-04-27T01:23:45;101238.30;;;11.54;76.63
57412;BME280;43247;52.828;-8.980;2023-04-27T01:24:45;101238.27;;;11.54;76.56
57412;BME280;43247;52.828;-8.980;2023-04-27T01:25:45;101238.02;;;11.53;76.53
57412;BME280;43247;52.828;-8.980;2023-04-27T01:26:46;101238.29;;;11.54;76.51
57412;BME280;43247;52.828;-8.980;2023-04-27T01:27:46;101240.43;;;11.53;76.59
57412;BME280;43247;52.828;-8.980;2023-04-27T01:28:46;101235.41;;;11.53;76.68
57412;BME280;43247;52.828;-8.980;2023-04-27T01:29:46;101234.20;;;11.53;76.59
57412;BME280;43247;52.828;-8.980;2023-04-27T01:30:47;101231.62;;;11.53;76.65
57412;BME280;43247;52.828;-8.980;2023-04-27T01:31:47;101230.84;;;11.53;76.70
57412;BME280;43247;52.828;-8.980;2023-04-27T01:32:47;101227.80;;;11.53;76.85
57412;BME280;43247;52.828;-8.980;2023-04-27T01:33:47;101226.61;;;11.53;76.70
57412;BME280;43247;52.828;-8.980;2023-04-27T01:34:47;101224.12;;;11.52;76.78
57412;BME280;43247;52.828;-8.980;2023-04-27T01:35:48;101222.88;;;11.52;76.73
57412;BME280;43247;52.828;-8.980;2023-04-27T01:36:48;101221.67;;;11.52;76.77
57412;BME280;43247;52.828;-8.980;2023-04-27T01:37:48;101220.36;;;11.51;76.75
57412;BME280;43247;52.828;-8.980;2023-04-27T01:38:49;101218.80;;;11.51;76.66
57412;BME280;43247;52.828;-8.980;2023-04-27T01:39:49;101217.72;;;11.51;76.64
57412;BME280;43247;52.828;-8.980;2023-04-27T01:40:50;101216.75;;;11.51;76.74
57412;BME280;43247;52.828;-8.980;2023-04-27T01:41:50;101215.97;;;11.51;76.77
57412;BME280;43247;52.828;-8.980;2023-04-27T01:42:50;101214.24;;;11.51;76.76
57412;BME280;43247;52.828;-8.980;2023-04-27T01:43:51;101212.15;;;11.51;76.62
57412;BME280;43247;52.828;-8.980;2023-04-27T01:44:51;101211.93;;;11.51;76.68
57412;BME280;43247;52.828;-8.980;2023-04-27T01:45:52;101209.11;;;11.51;76.74
57412;BME280;43247;52.828;-8.980;2023-04-27T01:46:52;101206.04;;;11.51;76.73
57412;BME280;43247;52.828;-8.980;2023-04-27T01:47:53;101205.74;;;11.50;76.67
57412;BME280;43247;52.828;-8.980;2023-04-27T01:48:53;101203.24;;;11.49;76.69
57412;BME280;43247;52.828;-8.980;2023-04-27T01:49:53;101202.13;;;11.49;76.66
57412;BME280;43247;52.828;-8.980;2023-04-27T01:50:53;101202.43;;;11.49;76.66
57412;BME280;43247;52.828;-8.980;2023-04-27T01:51:53;101201.05;;;11.49;76.70
57412;BME280;43247;52.828;-8.980;2023-04-27T01:52:53;101203.78;;;11.49;76.78
57412;BME280;43247;52.828;-8.980;2023-04-27T01:53:54;101205.39;;;11.49;76.83
57412;BME280;43247;52.828;-8.980;2023-04-27T01:54:54;101202.76;;;11.50;76.89
57412;BME280;43247;52.828;-8.980;2023-04-27T01:55:54;101202.93;;;11.49;76.92
57412;BME280;43247;52.828;-8.980;2023-04-27T01:56:55;101201.99;;;11.50;76.88
57412;BME280;43247;52.828;-8.980;2023-04-27T01:57:55;101200.49;;;11.49;76.91
57412;BME280;43247;52.828;-8.980;2023-04-27T01:58:55;101198.71;;;11.49;76.88
57412;BME280;43247;52.828;-8.980;2023-04-27T01:59:56;101194.43;;;11.49;76.84
57412;BME280;43247;52.828;-8.980;2023-04-27T02:00:56;101193.16;;;11.49;76.81
57412;BME280;43247;52.828;-8.980;2023-04-27T02:01:56;101190.77;;;11.50;76.86
57412;BME280;43247;52.828;-8.980;2023-04-27T02:02:56;101191.70;;;11.50;76.84
57412;BME280;43247;52.828;-8.980;2023-04-27T02:03:56;101187.28;;;11.50;76.81
57412;BME280;43247;52.828;-8.980;2023-04-27T02:04:57;101190.72;;;11.50;76.85
57412;BME280;43247;52.828;-8.980;2023-04-27T02:05:57;101187.23;;;11.50;76.83
57412;BME280;43247;52.828;-8.980;2023-04-27T02:06:57;101188.70;;;11.50;76.78
57412;BME280;43247;52.828;-8.980;2023-04-27T02:07:58;101185.19;;;11.49;76.82
57412;BME280;43247;52.828;-8.980;2023-04-27T02:08:58;101182.20;;;11.50;76.85
57412;BME280;43247;52.828;-8.980;2023-04-27T02:09:59;101181.69;;;11.50;76.89
57412;BME280;43247;52.828;-8.980;2023-04-27T02:10:59;101180.34;;;11.52;77.08
57412;BME280;43247;52.828;-8.980;2023-04-27T02:11:59;101176.26;;;11.53;77.08
57412;BME280;43247;52.828;-8.980;2023-04-27T02:12:59;101172.97;;;11.54;76.87
57412;BME280;43247;52.828;-8.980;2023-04-27T02:13:59;101170.11;;;11.53;76.85
57412;BME280;43247;52.828;-8.980;2023-04-27T02:14:59;101166.73;;;11.53;76.86
57412;BME280;43247;52.828;-8.980;2023-04-27T02:16:00;101167.86;;;11.53;76.83
57412;BME280;43247;52.828;-8.980;2023-04-27T02:17:00;101166.34;;;11.52;76.88
57412;BME280;43247;52.828;-8.980;2023-04-27T02:18:01;101165.98;;;11.52;76.84
57412;BME280;43247;52.828;-8.980;2023-04-27T02:19:00;101166.50;;;11.52;76.86
57412;BME280;43247;52.828;-8.980;2023-04-27T02:20:01;101165.79;;;11.53;76.90
57412;BME280;43247;52.828;-8.980;2023-04-27T02:21:01;101166.07;;;11.52;76.96
57412;BME280;43247;52.828;-8.980;2023-04-27T02:22:01;101165.01;;;11.52;76.93
57412;BME280;43247;52.828;-8.980;2023-04-27T02:23:01;101164.01;;;11.52;76.93
57412;BME280;43247;52.828;-8.980;2023-04-27T02:24:01;101163.75;;;11.52;76.84
57412;BME280;43247;52.828;-8.980;2023-04-27T02:25:01;101162.21;;;11.53;76.89
57412;BME280;43247;52.828;-8.980;2023-04-27T02:26:02;101160.88;;;11.53;76.92
57412;BME280;43247;52.828;-8.980;2023-04-27T02:27:02;101158.49;;;11.52;76.88
57412;BME280;43247;52.828;-8.980;2023-04-27T02:28:03;101156.70;;;11.52;76.86
57412;BME280;43247;52.828;-8.980;2023-04-27T02:29:02;101155.25;;;11.52;76.92
57412;BME280;43247;52.828;-8.980;2023-04-27T02:30:04;101154.38;;;11.52;77.04
57412;BME280;43247;52.828;-8.980;2023-04-27T02:31:03;101152.60;;;11.51;77.01
57412;BME280;43247;52.828;-8.980;2023-04-27T02:32:04;101154.67;;;11.52;76.94
57412;BME280;43247;52.828;-8.980;2023-04-27T02:33:04;101157.87;;;11.51;76.96
57412;BME280;43247;52.828;-8.980;2023-04-27T02:34:04;101155.31;;;11.51;76.97
57412;BME280;43247;52.828;-8.980;2023-04-27T02:35:05;101155.81;;;11.51;76.96
57412;BME280;43247;52.828;-8.980;2023-04-27T02:36:05;101155.47;;;11.50;76.87
57412;BME280;43247;52.828;-8.980;2023-04-27T02:37:05;101154.16;;;11.51;76.94
57412;BME280;43247;52.828;-8.980;2023-04-27T02:38:05;101151.11;;;11.51;77.01
57412;BME280;43247;52.828;-8.980;2023-04-27T02:39:05;101149.29;;;11.51;77.17
57412;BME280;43247;52.828;-8.980;2023-04-27T02:40:07;101148.02;;;11.52;77.15
57412;BME280;43247;52.828;-8.980;2023-04-27T02:41:06;101145.78;;;11.52;77.16
57412;BME280;43247;52.828;-8.980;2023-04-27T02:42:06;101143.42;;;11.51;77.09
57412;BME280;43247;52.828;-8.980;2023-04-27T02:43:06;101140.66;;;11.51;77.05
57412;BME280;43247;52.828;-8.980;2023-04-27T02:44:07;101139.66;;;11.51;77.02
57412;BME280;43247;52.828;-8.980;2023-04-27T02:45:07;101136.42;;;11.50;76.97
57412;BME280;43247;52.828;-8.980;2023-04-27T02:46:07;101137.01;;;11.51;77.04
57412;BME280;43247;52.828;-8.980;2023-04-27T02:47:08;101134.14;;;11.50;77.06
57412;BME280;43247;52.828;-8.980;2023-04-27T02:48:07;101133.31;;;11.50;77.11
57412;BME280;43247;52.828;-8.980;2023-04-27T02:49:08;101130.79;;;11.50;77.07
57412;BME280;43247;52.828;-8.980;2023-04-27T02:50:09;101130.23;;;11.50;77.02
57412;BME280;43247;52.828;-8.980;2023-04-27T02:51:09;101130.59;;;11.50;77.03
57412;BME280;43247;52.828;-8.980;2023-04-27T02:52:09;101131.22;;;11.50;77.08
57412;BME280;43247;52.828;-8.980;2023-04-27T02:53:10;101133.14;;;11.50;77.16
57412;BME280;43247;52.828;-8.980;2023-04-27T02:54:09;101131.94;;;11.48;76.97
57412;BME280;43247;52.828;-8.980;2023-04-27T02:55:10;101130.30;;;11.47;76.56
57412;BME280;43247;52.828;-8.980;2023-04-27T02:56:10;101129.16;;;11.47;76.51
57412;BME280;43247;52.828;-8.980;2023-04-27T02:57:10;101127.90;;;11.46;76.47
57412;BME280;43247;52.828;-8.980;2023-04-27T02:58:11;101124.85;;;11.46;76.45
57412;BME280;43247;52.828;-8.980;2023-04-27T02:59:11;101123.99;;;11.45;76.53
57412;BME280;43247;52.828;-8.980;2023-04-27T03:00:12;101122.52;;;11.43;76.72
57412;BME280;43247;52.828;-8.980;2023-04-27T03:01:12;101122.40;;;11.41;76.80
57412;BME280;43247;52.828;-8.980;2023-04-27T03:02:12;101122.34;;;11.41;76.85
57412;BME280;43247;52.828;-8.980;2023-04-27T03:03:12;101123.16;;;11.43;76.76
57412;BME280;43247;52.828;-8.980;2023-04-27T03:04:13;101121.66;;;11.44;76.65
57412;BME280;43247;52.828;-8.980;2023-04-27T03:05:13;101121.99;;;11.44;76.65
57412;BME280;43247;52.828;-8.980;2023-04-27T03:06:13;101121.62;;;11.44;76.68
57412;BME280;43247;52.828;-8.980;2023-04-27T03:07:13;101120.62;;;11.46;76.90
57412;BME280;43247;52.828;-8.980;2023-04-27T03:08:14;101118.45;;;11.48;76.88
57412;BME280;43247;52.828;-8.980;2023-04-27T03:09:14;101119.01;;;11.48;76.77
57412;BME280;43247;52.828;-8.980;2023-04-27T03:10:14;101117.60;;;11.46;76.84
57412;BME280;43247;52.828;-8.980;2023-04-27T03:11:14;101117.90;;;11.46;76.89
57412;BME280;43247;52.828;-8.980;2023-04-27T03:12:14;101118.76;;;11.46;76.79
57412;BME280;43247;52.828;-8.980;2023-04-27T03:13:14;101115.89;;;11.45;76.84
57412;BME280;43247;52.828;-8.980;2023-04-27T03:14:15;101114.40;;;11.46;76.92
57412;BME280;43247;52.828;-8.980;2023-04-27T03:15:15;101114.65;;;11.46;76.89
57412;BME280;43247;52.828;-8.980;2023-04-27T03:16:16;101110.92;;;11.45;76.84
57412;BME280;43247;52.828;-8.980;2023-04-27T03:17:17;101113.35;;;11.47;76.91
57412;BME280;43247;52.828;-8.980;2023-04-27T03:18:16;101111.55;;;11.47;76.78
57412;BME280;43247;52.828;-8.980;2023-04-27T03:19:17;101111.13;;;11.46;76.62
57412;BME280;43247;52.828;-8.980;2023-04-27T03:20:17;101110.65;;;11.48;76.56
57412;BME280;43247;52.828;-8.980;2023-04-27T03:21:17;101107.77;;;11.48;76.69
57412;BME280;43247;52.828;-8.980;2023-04-27T03:22:17;101106.67;;;11.49;76.56
57412;BME280;43247;52.828;-8.980;2023-04-27T03:23:17;101104.23;;;11.49;76.56
57412;BME280;43247;52.828;-8.980;2023-04-27T03:24:18;101104.86;;;11.50;76.46
57412;BME280;43247;52.828;-8.980;2023-04-27T03:25:19;101105.73;;;11.49;76.48
57412;BME280;43247;52.828;-8.980;2023-04-27T03:26:18;101106.56;;;11.49;76.39
57412;BME280;43247;52.828;-8.980;2023-04-27T03:27:19;101103.48;;;11.49;76.52
57412;BME280;43247;52.828;-8.980;2023-04-27T03:28:19;101103.78;;;11.48;76.58
57412;BME280;43247;52.828;-8.980;2023-04-27T03:29:19;101097.66;;;11.49;76.71
57412;BME280;43247;52.828;-8.980;2023-04-27T03:30:20;101097.87;;;11.49;76.66
57412;BME280;43247;52.828;-8.980;2023-04-27T03:31:20;101097.22;;;11.50;76.72
57412;BME280;43247;52.828;-8.980;2023-04-27T03:32:21;101099.45;;;11.50;76.65
57412;BME280;43247;52.828;-8.980;2023-04-27T03:33:21;101099.13;;;11.50;76.52
57412;BME280;43247;52.828;-8.980;2023-04-27T03:34:21;101096.86;;;11.49;76.46
57412;BME280;43247;52.828;-8.980;2023-04-27T03:35:21;101097.35;;;11.47;76.51
57412;BME280;43247;52.828;-8.980;2023-04-27T03:36:22;101092.92;;;11.47;76.61
57412;BME280;43247;52.828;-8.980;2023-04-27T03:37:22;101091.78;;;11.46;76.47
57412;BME280;43247;52.828;-8.980;2023-04-27T03:38:22;101089.16;;;11.46;76.42
57412;BME280;43247;52.828;-8.980;2023-04-27T03:39:22;101087.29;;;11.44;76.48
57412;BME280;43247;52.828;-8.980;2023-04-27T03:40:23;101087.40;;;11.44;76.58
57412;BME280;43247;52.828;-8.980;2023-04-27T03:41:23;101086.28;;;11.43;76.70
57412;BME280;43247;52.828;-8.980;2023-04-27T03:42:23;101084.08;;;11.43;76.75
57412;BME280;43247;52.828;-8.980;2023-04-27T03:43:24;101084.41;;;11.44;76.65
57412;BME280;43247;52.828;-8.980;2023-04-27T03:44:24;101082.08;;;11.45;76.53
57412;BME280;43247;52.828;-8.980;2023-04-27T03:45:24;101078.45;;;11.45;76.54
57412;BME280;43247;52.828;-8.980;2023-04-27T03:46:25;101076.71;;;11.44;76.43
57412;BME280;43247;52.828;-8.980;2023-04-27T03:47:24;101074.66;;;11.43;76.33
57412;BME280;43247;52.828;-8.980;2023-04-27T03:48:25;101072.78;;;11.44;76.49
57412;BME280;43247;52.828;-8.980;2023-04-27T03:49:25;101071.30;;;11.44;76.44
57412;BME280;43247;52.828;-8.980;2023-04-27T03:50:26;101071.24;;;11.43;76.56
57412;BME280;43247;52.828;-8.980;2023-04-27T03:51:26;101069.97;;;11.40;76.59
57412;BME280;43247;52.828;-8.980;2023-04-27T03:52:26;101067.96;;;11.41;76.60
57412;BME280;43247;52.828;-8.980;2023-04-27T03:53:26;101067.68;;;11.40;76.54
57412;BME280;43247;52.828;-8.980;2023-04-27T03:54:27;101067.29;;;11.40;76.52
57412;BME280;43247;52.828;-8.980;2023-04-27T03:55:27;101069.45;;;11.39;76.68
57412;BME280;43247;52.828;-8.980;2023-04-27T03:56:27;101068.95;;;11.40;76.56
57412;BME280;43247;52.828;-8.980;2023-04-27T03:57:28;101069.35;;;11.39;76.49
57412;BME280;43247;52.828;-8.980;2023-04-27T03:58:28;101069.19;;;11.39;76.58
57412;BME280;43247;52.828;-8.980;2023-04-27T03:59:28;101067.00;;;11.39;76.70
57412;BME280;43247;52.828;-8.980;2023-04-27T04:00:29;101064.53;;;11.40;76.66
57412;BME280;43247;52.828;-8.980;2023-04-27T04:01:29;101061.47;;;11.39;76.60
57412;BME280;43247;52.828;-8.980;2023-04-27T04:02:29;101059.76;;;11.41;76.54
57412;BME280;43247;52.828;-8.980;2023-04-27T04:03:29;101058.57;;;11.40;76.56
57412;BME280;43247;52.828;-8.980;2023-04-27T04:04:30;101059.87;;;11.40;76.61
57412;BME280;43247;52.828;-8.980;2023-04-27T04:05:30;101060.49;;;11.40;76.60
57412;BME280;43247;52.828;-8.980;2023-04-27T04:06:30;101056.42;;;11.40;76.69
57412;BME280;43247;52.828;-8.980;2023-04-27T04:07:30;101057.85;;;11.40;76.61
57412;BME280;43247;52.828;-8.980;2023-04-27T04:08:30;101052.91;;;11.39;76.57
57412;BME280;43247;52.828;-8.980;2023-04-27T04:09:30;101051.87;;;11.38;76.69
57412;BME280;43247;52.828;-8.980;2023-04-27T04:10:31;101053.46;;;11.39;76.76
57412;BME280;43247;52.828;-8.980;2023-04-27T04:11:31;101052.76;;;11.39;76.61
57412;BME280;43247;52.828;-8.980;2023-04-27T04:12:31;101051.33;;;11.38;76.69
57412;BME280;43247;52.828;-8.980;2023-04-27T04:13:31;101052.56;;;11.38;76.77
57412;BME280;43247;52.828;-8.980;2023-04-27T04:14:32;101054.33;;;11.38;76.85
57412;BME280;43247;52.828;-8.980;2023-04-27T04:15:32;101053.46;;;11.37;76.87
57412;BME280;43247;52.828;-8.980;2023-04-27T04:16:32;101051.10;;;11.36;76.95
57412;BME280;43247;52.828;-8.980;2023-04-27T04:17:33;101053.02;;;11.37;76.95
57412;BME280;43247;52.828;-8.980;2023-04-27T04:18:34;101055.52;;;11.38;76.93
57412;BME280;43247;52.828;-8.980;2023-04-27T04:19:33;101054.87;;;11.38;76.91
57412;BME280;43247;52.828;-8.980;2023-04-27T04:20:34;101054.86;;;11.38;76.93
57412;BME280;43247;52.828;-8.980;2023-04-27T04:21:33;101052.54;;;11.38;76.94
57412;BME280;43247;52.828;-8.980;2023-04-27T04:22:34;101051.33;;;11.38;76.95
57412;BME280;43247;52.828;-8.980;2023-04-27T04:23:35;101046.66;;;11.37;77.00
57412;BME280;43247;52.828;-8.980;2023-04-27T04:24:35;101046.16;;;11.37;76.97
57412;BME280;43247;52.828;-8.980;2023-04-27T04:25:35;101044.25;;;11.37;77.08
57412;BME280;43247;52.828;-8.980;2023-04-27T04:26:36;101041.52;;;11.37;77.13
57412;BME280;43247;52.828;-8.980;2023-04-27T04:27:36;101040.24;;;11.38;77.14
57412;BME280;43247;52.828;-8.980;2023-04-27T04:28:37;101040.80;;;11.38;77.12
57412;BME280;43247;52.828;-8.980;2023-04-27T04:29:37;101039.86;;;11.39;77.12
57412;BME280;43247;52.828;-8.980;2023-04-27T04:30:37;101039.50;;;11.39;77.06
57412;BME280;43247;52.828;-8.980;2023-04-27T04:31:37;101035.28;;;11.40;76.93
57412;BME280;43247;52.828;-8.980;2023-04-27T04:32:38;101037.72;;;11.39;76.81
57412;BME280;43247;52.828;-8.980;2023-04-27T04:33:38;101038.85;;;11.39;76.80
57412;BME280;43247;52.828;-8.980;2023-04-27T04:34:38;101036.01;;;11.38;76.91
57412;BME280;43247;52.828;-8.980;2023-04-27T04:35:38;101032.06;;;11.39;76.95
57412;BME280;43247;52.828;-8.980;2023-04-27T04:36:38;101030.41;;;11.39;77.01
57412;BME280;43247;52.828;-8.980;2023-04-27T04:37:38;101029.32;;;11.39;77.02
57412;BME280;43247;52.828;-8.980;2023-04-27T04:38:39;101026.81;;;11.39;76.94
57412;BME280;43247;52.828;-8.980;2023-04-27T04:39:39;101019.75;;;11.38;76.87
57412;BME280;43247;52.828;-8.980;2023-04-27T04:40:39;101017.19;;;11.39;76.99
57412;BME280;43247;52.828;-8.980;2023-04-27T04:41:40;101012.68;;;11.39;76.96
57412;BME280;43247;52.828;-8.980;2023-04-27T04:42:40;101007.83;;;11.40;76.96
57412;BME280;43247;52.828;-8.980;2023-04-27T04:43:41;101005.52;;;11.39;76.90
57412;BME280;43247;52.828;-8.980;2023-04-27T04:44:41;101002.12;;;11.39;76.84
57412;BME280;43247;52.828;-8.980;2023-04-27T04:45:41;100999.60;;;11.39;76.87
57412;BME280;43247;52.828;-8.980;2023-04-27T04:46:41;100996.81;;;11.39;76.90
57412;BME280;43247;52.828;-8.980;2023-04-27T04:47:41;100997.29;;;11.39;77.00
57412;BME280;43247;52.828;-8.980;2023-04-27T04:48:41;100996.01;;;11.39;77.00
57412;BME280;43247;52.828;-8.980;2023-04-27T04:49:41;100996.44;;;11.39;77.06
57412;BME280;43247;52.828;-8.980;2023-04-27T04:50:42;100992.61;;;11.38;77.09
57412;BME280;43247;52.828;-8.980;2023-04-27T04:51:42;100991.26;;;11.38;77.06
57412;BME280;43247;52.828;-8.980;2023-04-27T04:52:42;100989.00;;;11.37;77.12
57412;BME280;43247;52.828;-8.980;2023-04-27T04:53:42;100988.91;;;11.38;77.16
57412;BME280;43247;52.828;-8.980;2023-04-27T04:54:43;100985.44;;;11.38;77.13
57412;BME280;43247;52.828;-8.980;2023-04-27T04:55:43;100985.71;;;11.38;77.10
57412;BME280;43247;52.828;-8.980;2023-04-27T04:56:44;100983.92;;;11.37;77.06
57412;BME280;43247;52.828;-8.980;2023-04-27T04:57:44;100982.69;;;11.37;77.06
57412;BME280;43247;52.828;-8.980;2023-04-27T04:58:44;100984.92;;;11.36;77.00
57412;BME280;43247;52.828;-8.980;2023-04-27T04:59:45;100985.32;;;11.36;77.06
57412;BME280;43247;52.828;-8.980;2023-04-27T05:00:45;100983.50;;;11.37;77.13
57412;BME280;43247;52.828;-8.980;2023-04-27T05:01:45;100986.78;;;11.37;77.18
57412;BME280;43247;52.828;-8.980;2023-04-27T05:02:46;100988.93;;;11.37;77.22
57412;BME280;43247;52.828;-8.980;2023-04-27T05:03:46;100987.03;;;11.37;77.18
57412;BME280;43247;52.828;-8.980;2023-04-27T05:04:46;100988.70;;;11.37;77.14
57412;BME280;43247;52.828;-8.980;2023-04-27T05:05:47;100988.55;;;11.37;77.12
57412;BME280;43247;52.828;-8.980;2023-04-27T05:06:47;100988.35;;;11.36;77.16
57412;BME280;43247;52.828;-8.980;2023-04-27T05:07:48;100990.30;;;11.36;77.18
57412;BME280;43247;52.828;-8.980;2023-04-27T05:08:48;100990.13;;;11.36;77.31
57412;BME280;43247;52.828;-8.980;2023-04-27T05:09:48;100991.84;;;11.36;77.40
57412;BME280;43247;52.828;-8.980;2023-04-27T05:10:49;100989.75;;;11.36;77.40